| Date | Time | Temp. (oF) | Dew Point (oF) | Rel. Hum. (%) | Press. (in.) | Wind Dir. | Wind Speed (mph) | Hourly Rainfall (in.) |
|
|---|---|---|---|---|---|---|---|---|---|
| 1 | 04/07 | 00:00 | 66 | 50 | 57 | 30.00 | S | 3 | 0.00 |
| 2 | 04/06 | 23:00 | 67 | 50 | 55 | 30.02 | S | 4 | 0.00 |
| 3 | 04/06 | 22:00 | 70 | 50 | 50 | 30.02 | S | 4 | 0.00 |
| 4 | 04/06 | 21:00 | 72 | 49 | 46 | 30.02 | S | 5 | 0.00 |
| 5 | 04/06 | 20:00 | 74 | 49 | 42 | 30.02 | SSE | 6 | 0.00 |
| 6 | 04/06 | 19:00 | 77 | 52 | 43 | 30.00 | S | 4 | 0.00 |
| 7 | 04/06 | 18:00 | 82 | 45 | 28 | 29.99 | SW | 4 | 0.00 |
| 8 | 04/06 | 17:00 | 83 | 45 | 27 | 30.00 | SW | 6 | 0.00 |
| 9 | 04/06 | 16:00 | 82 | 48 | 31 | 30.02 | SSW | 5 | 0.00 |
| 10 | 04/06 | 15:00 | 82 | 52 | 36 | 30.04 | W | 3 | 0.00 |
| 11 | 04/06 | 14:00 | 78 | 54 | 44 | 30.07 | S | 3 | 0.00 |
| 12 | 04/06 | 13:00 | 74 | 52 | 47 | 30.10 | SSW | 6 | 0.00 |
| 13 | 04/06 | 12:00 | 69 | 50 | 52 | 30.12 | WNW | 5 | 0.00 |
| 14 | 04/06 | 11:00 | 63 | 47 | 57 | 30.13 | NW | 1 | 0.00 |
| 15 | 04/06 | 10:00 | 58 | 45 | 64 | 30.13 | SSE | 4 | 0.00 |
| 16 | 04/06 | 09:00 | 52 | 43 | 73 | 30.12 | S | 1 | 0.00 |
| 17 | 04/06 | 08:00 | 46 | 41 | 83 | 30.13 | SE | 1 | 0.00 |
| 18 | 04/06 | 07:00 | 45 | 38 | 78 | 30.13 | SE | 0 | 0.00 |
| 19 | 04/06 | 06:00 | 46 | 38 | 74 | 30.11 | SE | 1 | 0.00 |
| 20 | 04/06 | 05:00 | 48 | 38 | 69 | 30.10 | S | 3 | 0.00 |
| 21 | 04/06 | 04:00 | 50 | 37 | 63 | 30.11 | SSW | 0 | 0.00 |
| 22 | 04/06 | 03:00 | 52 | 37 | 58 | 30.12 | SE | 4 | 0.00 |
| 23 | 04/06 | 02:00 | 53 | 36 | 54 | 30.13 | S | 5 | 0.00 |
| 24 | 04/06 | 01:00 | 55 | 37 | 51 | 30.14 | SSE | 4 | 0.00 |